sensor_id;sensor_type;location;lat;lon;timestamp;temperature;humidity
7496;DHT22;3789;47.064;15.482;2024-02-14T00:00:29;3.80;99.90
7496;DHT22;3789;47.064;15.482;2024-02-14T00:03:00;3.80;99.90
7496;DHT22;3789;47.064;15.482;2024-02-14T00:05:31;3.70;99.90
7496;DHT22;3789;47.064;15.482;2024-02-14T00:08:09;3.50;99.90
7496;DHT22;3789;47.064;15.482;2024-02-14T00:10:38;3.60;99.90
7496;DHT22;3789;47.064;15.482;2024-02-14T00:13:10;3.60;99.90
7496;DHT22;3789;47.064;15.482;2024-02-14T00:15:44;3.60;99.90
7496;DHT22;3789;47.064;15.482;2024-02-14T00:18:21;3.70;99.90
7496;DHT22;3789;47.064;15.482;2024-02-14T00:20:52;3.90;99.90
7496;DHT22;3789;47.064;15.482;2024-02-14T00:23:25;4.10;99.90
7496;DHT22;3789;47.064;15.482;2024-02-14T00:26:04;4.10;99.90
7496;DHT22;3789;47.064;15.482;2024-02-14T00:28:41;4.10;99.90
7496;DHT22;3789;47.064;15.482;2024-02-14T00:31:14;3.90;99.90
7496;DHT22;3789;47.064;15.482;2024-02-14T00:33:43;3.50;99.90
7496;DHT22;3789;47.064;15.482;2024-02-14T00:36:22;3.40;99.90
7496;DHT22;3789;47.064;15.482;2024-02-14T00:38:59;3.30;99.90
7496;DHT22;3789;47.064;15.482;2024-02-14T00:41:31;3.10;99.90
7496;DHT22;3789;47.064;15.482;2024-02-14T00:44:02;3.00;99.90
7496;DHT22;3789;47.064;15.482;2024-02-14T00:46:35;2.80;99.90
7496;DHT22;3789;47.064;15.482;2024-02-14T00:49:12;2.70;99.90
7496;DHT22;3789;47.064;15.482;2024-02-14T00:51:48;2.80;99.90
7496;DHT22;3789;47.064;15.482;2024-02-14T00:54:17;2.80;99.90
7496;DHT22;3789;47.064;15.482;2024-02-14T00:56:47;2.90;99.90
7496;DHT22;3789;47.064;15.482;2024-02-14T00:59:18;3.40;99.90
7496;DHT22;3789;47.064;15.482;2024-02-14T01:01:49;3.40;99.90
7496;DHT22;3789;47.064;15.482;2024-02-14T01:04:19;3.10;99.90
7496;DHT22;3789;47.064;15.482;2024-02-14T01:06:48;3.10;99.90
7496;DHT22;3789;47.064;15.482;2024-02-14T01:09:26;3.00;99.90
7496;DHT22;3789;47.064;15.482;2024-02-14T01:11:58;2.90;99.90
7496;DHT22;3789;47.064;15.482;2024-02-14T01:14:29;2.80;99.90
7496;DHT22;3789;47.064;15.482;2024-02-14T01:17:00;2.70;99.90
7496;DHT22;3789;47.064;15.482;2024-02-14T01:19:29;2.70;99.90
7496;DHT22;3789;47.064;15.482;2024-02-14T01:22:04;2.70;99.90
7496;DHT22;3789;47.064;15.482;2024-02-14T01:24:32;2.60;99.90
7496;DHT22;3789;47.064;15.482;2024-02-14T01:27:04;2.60;99.90
7496;DHT22;3789;47.064;15.482;2024-02-14T01:29:35;2.90;99.90
7496;DHT22;3789;47.064;15.482;2024-02-14T01:32:03;3.00;99.90
7496;DHT22;3789;47.064;15.482;2024-02-14T01:34:33;2.80;99.90
7496;DHT22;3789;47.064;15.482;2024-02-14T01:37:03;2.70;99.90
7496;DHT22;3789;47.064;15.482;2024-02-14T01:39:32;2.70;99.90
7496;DHT22;3789;47.064;15.482;2024-02-14T01:41:59;2.90;99.90
7496;DHT22;3789;47.064;15.482;2024-02-14T01:44:34;2.90;99.90
7496;DHT22;3789;47.064;15.482;2024-02-14T01:47:07;2.80;99.90
7496;DHT22;3789;47.064;15.482;2024-02-14T01:49:37;2.50;99.90
7496;DHT22;3789;47.064;15.482;2024-02-14T01:52:09;2.40;99.90
7496;DHT22;3789;47.064;15.482;2024-02-14T01:54:41;2.10;99.90
7496;DHT22;3789;47.064;15.482;2024-02-14T01:57:18;1.90;99.90
7496;DHT22;3789;47.064;15.482;2024-02-14T01:59:48;1.90;99.90
7496;DHT22;3789;47.064;15.482;2024-02-14T02:02:28;2.00;99.90
7496;DHT22;3789;47.064;15.482;2024-02-14T02:04:57;2.00;99.90
7496;DHT22;3789;47.064;15.482;2024-02-14T02:07:27;2.00;99.90
7496;DHT22;3789;47.064;15.482;2024-02-14T02:09:54;1.80;99.90
7496;DHT22;3789;47.064;15.482;2024-02-14T02:12:26;1.70;99.90
7496;DHT22;3789;47.064;15.482;2024-02-14T02:14:55;1.70;99.90
7496;DHT22;3789;47.064;15.482;2024-02-14T02:17:23;1.60;99.90
7496;DHT22;3789;47.064;15.482;2024-02-14T02:19:55;1.60;99.90
7496;DHT22;3789;47.064;15.482;2024-02-14T02:22:30;1.70;99.90
7496;DHT22;3789;47.064;15.482;2024-02-14T02:25:06;1.70;99.90
7496;DHT22;3789;47.064;15.482;2024-02-14T02:27:35;1.60;99.90
7496;DHT22;3789;47.064;15.482;2024-02-14T02:30:07;1.60;99.90
7496;DHT22;3789;47.064;15.482;2024-02-14T02:32:39;1.60;99.90
7496;DHT22;3789;47.064;15.482;2024-02-14T02:35:11;1.50;99.90
7496;DHT22;3789;47.064;15.482;2024-02-14T02:37:40;1.30;99.90
7496;DHT22;3789;47.064;15.482;2024-02-14T02:40:11;1.20;99.90
7496;DHT22;3789;47.064;15.482;2024-02-14T02:42:44;1.20;99.90
7496;DHT22;3789;47.064;15.482;2024-02-14T02:45:13;1.20;99.90
7496;DHT22;3789;47.064;15.482;2024-02-14T02:47:50;1.10;99.90
7496;DHT22;3789;47.064;15.482;2024-02-14T02:50:21;1.10;99.90
7496;DHT22;3789;47.064;15.482;2024-02-14T02:52:51;1.10;99.90
7496;DHT22;3789;47.064;15.482;2024-02-14T02:55:22;1.10;99.90
7496;DHT22;3789;47.064;15.482;2024-02-14T02:57:56;1.10;99.90
7496;DHT22;3789;47.064;15.482;2024-02-14T03:00:28;1.10;99.90
7496;DHT22;3789;47.064;15.482;2024-02-14T03:02:59;1.20;99.90
7496;DHT22;3789;47.064;15.482;2024-02-14T03:05:33;1.20;99.90
7496;DHT22;3789;47.064;15.482;2024-02-14T03:08:01;1.20;99.90
7496;DHT22;3789;47.064;15.482;2024-02-14T03:10:32;1.30;99.90
7496;DHT22;3789;47.064;15.482;2024-02-14T03:13:01;1.60;99.90
7496;DHT22;3789;47.064;15.482;2024-02-14T03:15:44;1.70;99.90
7496;DHT22;3789;47.064;15.482;2024-02-14T03:18:20;1.60;99.90
7496;DHT22;3789;47.064;15.482;2024-02-14T03:20:58;1.70;99.90
7496;DHT22;3789;47.064;15.482;2024-02-14T03:23:31;1.80;99.90
7496;DHT22;3789;47.064;15.482;2024-02-14T03:26:08;1.80;99.90
7496;DHT22;3789;47.064;15.482;2024-02-14T03:28:49;1.90;99.90
7496;DHT22;3789;47.064;15.482;2024-02-14T03:31:25;1.90;99.90
7496;DHT22;3789;47.064;15.482;2024-02-14T03:34:09;1.70;99.90
7496;DHT22;3789;47.064;15.482;2024-02-14T03:36:43;1.60;99.90
7496;DHT22;3789;47.064;15.482;2024-02-14T03:39:11;1.50;99.90
7496;DHT22;3789;47.064;15.482;2024-02-14T03:41:38;1.50;99.90
7496;DHT22;3789;47.064;15.482;2024-02-14T03:44:08;1.40;99.90
7496;DHT22;3789;47.064;15.482;2024-02-14T03:46:47;1.40;99.90
7496;DHT22;3789;47.064;15.482;2024-02-14T03:49:22;1.60;99.90
7496;DHT22;3789;47.064;15.482;2024-02-14T03:51:57;1.70;99.90
7496;DHT22;3789;47.064;15.482;2024-02-14T03:54:48;1.80;99.90
7496;DHT22;3789;47.064;15.482;2024-02-14T03:57:23;1.80;99.90
7496;DHT22;3789;47.064;15.482;2024-02-14T04:00:00;1.80;99.90
7496;DHT22;3789;47.064;15.482;2024-02-14T04:02:43;1.50;99.90
7496;DHT22;3789;47.064;15.482;2024-02-14T04:05:12;1.40;99.90
7496;DHT22;3789;47.064;15.482;2024-02-14T04:07:41;1.40;99.90
7496;DHT22;3789;47.064;15.482;2024-02-14T04:10:21;1.50;99.90
7496;DHT22;3789;47.064;15.482;2024-02-14T04:12:59;1.70;99.90
7496;DHT22;3789;47.064;15.482;2024-02-14T04:15:34;1.80;99.90
7496;DHT22;3789;47.064;15.482;2024-02-14T04:18:14;1.40;99.90
7496;DHT22;3789;47.064;15.482;2024-02-14T04:20:51;1.40;99.90
7496;DHT22;3789;47.064;15.482;2024-02-14T04:23:25;1.20;99.90
7496;DHT22;3789;47.064;15.482;2024-02-14T04:25:54;1.20;99.90
7496;DHT22;3789;47.064;15.482;2024-02-14T04:28:32;1.20;99.90
7496;DHT22;3789;47.064;15.482;2024-02-14T04:31:01;1.30;99.90
7496;DHT22;3789;47.064;15.482;2024-02-14T04:33:29;1.30;99.90
7496;DHT22;3789;47.064;15.482;2024-02-14T04:36:04;1.30;99.90
7496;DHT22;3789;47.064;15.482;2024-02-14T04:38:39;1.10;99.90
7496;DHT22;3789;47.064;15.482;2024-02-14T04:41:11;1.00;99.90
7496;DHT22;3789;47.064;15.482;2024-02-14T04:43:46;0.90;99.90
7496;DHT22;3789;47.064;15.482;2024-02-14T04:46:20;0.90;99.90
7496;DHT22;3789;47.064;15.482;2024-02-14T04:48:50;0.90;99.90
7496;DHT22;3789;47.064;15.482;2024-02-14T04:51:24;1.00;99.90
7496;DHT22;3789;47.064;15.482;2024-02-14T04:54:01;1.00;99.90
7496;DHT22;3789;47.064;15.482;2024-02-14T04:56:31;0.80;99.90
7496;DHT22;3789;47.064;15.482;2024-02-14T04:59:01;0.60;99.90
7496;DHT22;3789;47.064;15.482;2024-02-14T05:01:38;0.60;99.90
7496;DHT22;3789;47.064;15.482;2024-02-14T05:04:17;0.90;99.90
7496;DHT22;3789;47.064;15.482;2024-02-14T05:06:51;1.00;99.90
7496;DHT22;3789;47.064;15.482;2024-02-14T05:09:26;1.00;99.90
7496;DHT22;3789;47.064;15.482;2024-02-14T05:11:55;1.00;99.90
7496;DHT22;3789;47.064;15.482;2024-02-14T05:14:26;1.10;99.90
7496;DHT22;3789;47.064;15.482;2024-02-14T05:17:01;1.00;99.90
7496;DHT22;3789;47.064;15.482;2024-02-14T05:19:32;0.90;99.90
7496;DHT22;3789;47.064;15.482;2024-02-14T05:22:00;0.80;99.90
7496;DHT22;3789;47.064;15.482;2024-02-14T05:24:28;0.90;99.90
7496;DHT22;3789;47.064;15.482;2024-02-14T05:27:06;1.00;99.90
7496;DHT22;3789;47.064;15.482;2024-02-14T05:29:37;1.10;99.90
7496;DHT22;3789;47.064;15.482;2024-02-14T05:32:07;1.10;99.90
7496;DHT22;3789;47.064;15.482;2024-02-14T05:34:40;1.20;99.90
7496;DHT22;3789;47.064;15.482;2024-02-14T05:37:12;1.20;99.90
7496;DHT22;3789;47.064;15.482;2024-02-14T05:39:47;1.30;99.90
7496;DHT22;3789;47.064;15.482;2024-02-14T05:42:15;1.30;99.90
7496;DHT22;3789;47.064;15.482;2024-02-14T05:44:59;1.40;99.90
7496;DHT22;3789;47.064;15.482;2024-02-14T05:47:35;1.30;99.90
7496;DHT22;3789;47.064;15.482;2024-02-14T05:50:07;1.20;99.90
7496;DHT22;3789;47.064;15.482;2024-02-14T05:52:55;1.20;99.90
7496;DHT22;3789;47.064;15.482;2024-02-14T05:55:31;1.20;99.90
7496;DHT22;3789;47.064;15.482;2024-02-14T05:58:42;1.20;99.90
7496;DHT22;3789;47.064;15.482;2024-02-14T06:01:12;1.10;99.90
7496;DHT22;3789;47.064;15.482;2024-02-14T06:03:47;0.90;99.90
7496;DHT22;3789;47.064;15.482;2024-02-14T06:06:18;0.90;99.90
7496;DHT22;3789;47.064;15.482;2024-02-14T06:08:46;1.00;99.90
7496;DHT22;3789;47.064;15.482;2024-02-14T06:11:31;0.90;99.90
7496;DHT22;3789;47.064;15.482;2024-02-14T06:14:09;0.80;99.90
7496;DHT22;3789;47.064;15.482;2024-02-14T06:16:38;0.80;99.90
7496;DHT22;3789;47.064;15.482;2024-02-14T06:19:14;0.80;99.90
7496;DHT22;3789;47.064;15.482;2024-02-14T06:21:45;1.10;99.90
7496;DHT22;3789;47.064;15.482;2024-02-14T06:24:23;1.30;99.90
7496;DHT22;3789;47.064;15.482;2024-02-14T06:27:00;1.40;99.90
7496;DHT22;3789;47.064;15.482;2024-02-14T06:29:30;1.70;99.90
7496;DHT22;3789;47.064;15.482;2024-02-14T06:32:06;1.70;99.90
7496;DHT22;3789;47.064;15.482;2024-02-14T06:34:48;1.60;99.90
7496;DHT22;3789;47.064;15.482;2024-02-14T06:37:28;1.60;99.90
7496;DHT22;3789;47.064;15.482;2024-02-14T06:39:58;1.70;99.90
7496;DHT22;3789;47.064;15.482;2024-02-14T06:42:51;1.80;99.90
7496;DHT22;3789;47.064;15.482;2024-02-14T06:45:30;1.90;99.90
7496;DHT22;3789;47.064;15.482;2024-02-14T06:48:10;1.90;99.90
7496;DHT22;3789;47.064;15.482;2024-02-14T06:50:56;1.70;99.90
7496;DHT22;3789;47.064;15.482;2024-02-14T06:53:38;1.70;99.90
7496;DHT22;3789;47.064;15.482;2024-02-14T06:56:07;1.50;99.90
7496;DHT22;3789;47.064;15.482;2024-02-14T06:58:35;1.30;99.90
7496;DHT22;3789;47.064;15.482;2024-02-14T07:01:10;1.20;99.90
7496;DHT22;3789;47.064;15.482;2024-02-14T07:03:45;1.40;99.90
7496;DHT22;3789;47.064;15.482;2024-02-14T07:06:31;1.50;99.90
7496;DHT22;3789;47.064;15.482;2024-02-14T07:09:05;1.70;99.90
7496;DHT22;3789;47.064;15.482;2024-02-14T07:11:43;2.20;99.90
7496;DHT22;3789;47.064;15.482;2024-02-14T07:14:16;2.80;99.90
7496;DHT22;3789;47.064;15.482;2024-02-14T07:16:45;3.50;99.90
7496;DHT22;3789;47.064;15.482;2024-02-14T07:19:20;4.00;99.90
7496;DHT22;3789;47.064;15.482;2024-02-14T07:21:49;4.20;99.90
7496;DHT22;3789;47.064;15.482;2024-02-14T07:24:27;4.80;99.90
7496;DHT22;3789;47.064;15.482;2024-02-14T07:26:58;6.10;99.90
7496;DHT22;3789;47.064;15.482;2024-02-14T07:29:26;8.00;99.90
7496;DHT22;3789;47.064;15.482;2024-02-14T07:31:54;9.40;99.90
7496;DHT22;3789;47.064;15.482;2024-02-14T07:34:28;9.80;99.90
7496;DHT22;3789;47.064;15.482;2024-02-14T07:36:58;9.70;99.30
7496;DHT22;3789;47.064;15.482;2024-02-14T07:39:26;8.90;99.80
7496;DHT22;3789;47.064;15.482;2024-02-14T07:41:53;8.70;99.90
7496;DHT22;3789;47.064;15.482;2024-02-14T07:44:25;9.30;99.90
7496;DHT22;3789;47.064;15.482;2024-02-14T07:46:53;9.50;99.90
7496;DHT22;3789;47.064;15.482;2024-02-14T07:49:33;9.00;99.90
7496;DHT22;3789;47.064;15.482;2024-02-14T07:52:01;9.20;99.90
7496;DHT22;3789;47.064;15.482;2024-02-14T07:54:30;10.20;98.00
7496;DHT22;3789;47.064;15.482;2024-02-14T07:56:59;10.50;98.10
7496;DHT22;3789;47.064;15.482;2024-02-14T07:59:30;11.50;97.40
7496;DHT22;3789;47.064;15.482;2024-02-14T08:01:59;11.50;95.70
7496;DHT22;3789;47.064;15.482;2024-02-14T08:04:30;9.10;96.70
7496;DHT22;3789;47.064;15.482;2024-02-14T08:06:59;7.40;99.00
7496;DHT22;3789;47.064;15.482;2024-02-14T08:09:29;7.50;99.90
7496;DHT22;3789;47.064;15.482;2024-02-14T08:11:58;8.50;99.40
7496;DHT22;3789;47.064;15.482;2024-02-14T08:14:30;8.50;99.40
7496;DHT22;3789;47.064;15.482;2024-02-14T08:16:59;8.60;99.60
7496;DHT22;3789;47.064;15.482;2024-02-14T08:19:29;8.60;99.50
7496;DHT22;3789;47.064;15.482;2024-02-14T08:21:57;8.10;99.20
7496;DHT22;3789;47.064;15.482;2024-02-14T08:24:36;7.00;99.80
7496;DHT22;3789;47.064;15.482;2024-02-14T08:27:07;6.00;99.90
7496;DHT22;3789;47.064;15.482;2024-02-14T08:29:46;5.20;99.90
7496;DHT22;3789;47.064;15.482;2024-02-14T08:32:22;4.80;99.90
7496;DHT22;3789;47.064;15.482;2024-02-14T08:34:55;4.70;99.90
7496;DHT22;3789;47.064;15.482;2024-02-14T08:37:26;4.70;99.90
7496;DHT22;3789;47.064;15.482;2024-02-14T08:39:54;4.70;99.90
7496;DHT22;3789;47.064;15.482;2024-02-14T08:42:25;4.90;99.90
7496;DHT22;3789;47.064;15.482;2024-02-14T08:45:01;5.00;99.90
7496;DHT22;3789;47.064;15.482;2024-02-14T08:47:31;5.10;99.90
7496;DHT22;3789;47.064;15.482;2024-02-14T08:50:06;5.20;99.90
7496;DHT22;3789;47.064;15.482;2024-02-14T08:52:38;5.20;99.90
7496;DHT22;3789;47.064;15.482;2024-02-14T08:55:05;5.40;99.90
7496;DHT22;3789;47.064;15.482;2024-02-14T08:57:38;5.70;99.90
7496;DHT22;3789;47.064;15.482;2024-02-14T09:00:07;5.90;99.90
7496;DHT22;3789;47.064;15.482;2024-02-14T09:02:40;6.10;99.90
7496;DHT22;3789;47.064;15.482;2024-02-14T09:05:18;6.10;99.90
7496;DHT22;3789;47.064;15.482;2024-02-14T09:07:53;6.30;99.90
7496;DHT22;3789;47.064;15.482;2024-02-14T09:10:23;6.50;99.90
7496;DHT22;3789;47.064;15.482;2024-02-14T09:12:54;6.60;99.90
7496;DHT22;3789;47.064;15.482;2024-02-14T09:15:23;6.60;99.90
7496;DHT22;3789;47.064;15.482;2024-02-14T09:17:55;6.70;99.90
7496;DHT22;3789;47.064;15.482;2024-02-14T09:20:26;6.70;99.90
7496;DHT22;3789;47.064;15.482;2024-02-14T09:22:56;6.60;99.90
7496;DHT22;3789;47.064;15.482;2024-02-14T09:25:26;6.60;99.90
7496;DHT22;3789;47.064;15.482;2024-02-14T09:27:56;6.70;99.90
7496;DHT22;3789;47.064;15.482;2024-02-14T09:30:23;6.70;99.90
7496;DHT22;3789;47.064;15.482;2024-02-14T09:33:05;6.70;99.90
7496;DHT22;3789;47.064;15.482;2024-02-14T09:35:40;6.70;99.90
7496;DHT22;3789;47.064;15.482;2024-02-14T09:38:13;6.80;99.90
7496;DHT22;3789;47.064;15.482;2024-02-14T09:40:42;7.00;99.90
7496;DHT22;3789;47.064;15.482;2024-02-14T09:43:38;7.10;99.90
7496;DHT22;3789;47.064;15.482;2024-02-14T09:46:16;7.30;99.90
7496;DHT22;3789;47.064;15.482;2024-02-14T09:49:06;7.70;99.90
7496;DHT22;3789;47.064;15.482;2024-02-14T09:51:38;7.80;99.90
7496;DHT22;3789;47.064;15.482;2024-02-14T09:54:07;7.70;99.80
7496;DHT22;3789;47.064;15.482;2024-02-14T09:56:50;7.50;99.90
7496;DHT22;3789;47.064;15.482;2024-02-14T09:59:24;7.50;99.90
7496;DHT22;3789;47.064;15.482;2024-02-14T10:01:51;7.60;99.80
7496;DHT22;3789;47.064;15.482;2024-02-14T10:04:21;7.70;99.90
7496;DHT22;3789;47.064;15.482;2024-02-14T10:06:53;7.50;99.60
7496;DHT22;3789;47.064;15.482;2024-02-14T10:09:25;7.60;99.20
7496;DHT22;3789;47.064;15.482;2024-02-14T10:12:04;7.50;98.30
7496;DHT22;3789;47.064;15.482;2024-02-14T10:14:42;7.70;99.40
7496;DHT22;3789;47.064;15.482;2024-02-14T10:17:21;8.10;99.90
7496;DHT22;3789;47.064;15.482;2024-02-14T10:20:02;8.20;98.60
7496;DHT22;3789;47.064;15.482;2024-02-14T10:22:35;8.20;98.30
7496;DHT22;3789;47.064;15.482;2024-02-14T10:25:08;8.00;97.60
7496;DHT22;3789;47.064;15.482;2024-02-14T10:27:40;7.90;97.80
7496;DHT22;3789;47.064;15.482;2024-02-14T10:30:10;8.00;98.00
7496;DHT22;3789;47.064;15.482;2024-02-14T10:32:47;8.00;97.60
7496;DHT22;3789;47.064;15.482;2024-02-14T10:35:20;8.10;98.00
7496;DHT22;3789;47.064;15.482;2024-02-14T10:38:00;8.20;98.30
7496;DHT22;3789;47.064;15.482;2024-02-14T10:40:32;8.20;98.00
7496;DHT22;3789;47.064;15.482;2024-02-14T10:43:03;8.40;99.20
7496;DHT22;3789;47.064;15.482;2024-02-14T10:45:37;8.70;99.20
7496;DHT22;3789;47.064;15.482;2024-02-14T10:48:05;8.80;98.50
7496;DHT22;3789;47.064;15.482;2024-02-14T10:50:44;9.10;98.10
7496;DHT22;3789;47.064;15.482;2024-02-14T10:53:14;9.40;97.10
7496;DHT22;3789;47.064;15.482;2024-02-14T10:55:49;9.40;96.70
7496;DHT22;3789;47.064;15.482;2024-02-14T10:58:19;9.30;98.40
7496;DHT22;3789;47.064;15.482;2024-02-14T11:00:48;9.10;97.70
7496;DHT22;3789;47.064;15.482;2024-02-14T11:03:17;9.10;97.20
7496;DHT22;3789;47.064;15.482;2024-02-14T11:05:47;9.00;97.20
7496;DHT22;3789;47.064;15.482;2024-02-14T11:08:21;8.80;96.00
7496;DHT22;3789;47.064;15.482;2024-02-14T11:11:00;9.00;96.60
7496;DHT22;3789;47.064;15.482;2024-02-14T11:13:30;9.10;96.20
7496;DHT22;3789;47.064;15.482;2024-02-14T11:16:03;9.20;95.40
7496;DHT22;3789;47.064;15.482;2024-02-14T11:18:40;9.40;96.20
7496;DHT22;3789;47.064;15.482;2024-02-14T11:21:18;9.40;95.60
7496;DHT22;3789;47.064;15.482;2024-02-14T11:23:53;9.60;94.00
7496;DHT22;3789;47.064;15.482;2024-02-14T11:26:38;9.70;94.90
7496;DHT22;3789;47.064;15.482;2024-02-14T11:29:07;9.80;95.60
7496;DHT22;3789;47.064;15.482;2024-02-14T11:31:35;10.00;94.80
7496;DHT22;3789;47.064;15.482;2024-02-14T11:34:08;10.10;93.40
7496;DHT22;3789;47.064;15.482;2024-02-14T11:36:44;10.20;94.80
7496;DHT22;3789;47.064;15.482;2024-02-14T11:39:22;10.40;94.20
7496;DHT22;3789;47.064;15.482;2024-02-14T11:41:58;10.20;93.40
7496;DHT22;3789;47.064;15.482;2024-02-14T11:44:29;10.20;94.20
7496;DHT22;3789;47.064;15.482;2024-02-14T11:46:58;10.20;94.40
7496;DHT22;3789;47.064;15.482;2024-02-14T11:49:30;10.20;94.80
7496;DHT22;3789;47.064;15.482;2024-02-14T11:51:59;10.00;93.20
7496;DHT22;3789;47.064;15.482;2024-02-14T11:54:30;10.00;94.00
7496;DHT22;3789;47.064;15.482;2024-02-14T11:57:04;9.90;95.50
7496;DHT22;3789;47.064;15.482;2024-02-14T11:59:35;10.00;94.10
7496;DHT22;3789;47.064;15.482;2024-02-14T12:02:03;10.00;94.10
7496;DHT22;3789;47.064;15.482;2024-02-14T12:04:32;9.90;95.00
7496;DHT22;3789;47.064;15.482;2024-02-14T12:07:04;9.90;94.80
7496;DHT22;3789;47.064;15.482;2024-02-14T12:09:33;10.00;95.10
7496;DHT22;3789;47.064;15.482;2024-02-14T12:12:00;10.00;94.10
7496;DHT22;3789;47.064;15.482;2024-02-14T12:14:32;10.10;95.80
7496;DHT22;3789;47.064;15.482;2024-02-14T12:17:08;10.00;96.30
7496;DHT22;3789;47.064;15.482;2024-02-14T12:19:39;10.00;96.30
7496;DHT22;3789;47.064;15.482;2024-02-14T12:22:15;10.10;96.20
7496;DHT22;3789;47.064;15.482;2024-02-14T12:24:50;10.20;95.70
7496;DHT22;3789;47.064;15.482;2024-02-14T12:27:31;10.40;95.90
7496;DHT22;3789;47.064;15.482;2024-02-14T12:30:08;10.50;95.70
7496;DHT22;3789;47.064;15.482;2024-02-14T12:32:40;10.40;94.00
7496;DHT22;3789;47.064;15.482;2024-02-14T12:35:10;10.40;94.30
7496;DHT22;3789;47.064;15.482;2024-02-14T12:37:40;10.60;94.40
7496;DHT22;3789;47.064;15.482;2024-02-14T12:40:08;10.60;94.40
7496;DHT22;3789;47.064;15.482;2024-02-14T12:42:40;10.60;94.70
7496;DHT22;3789;47.064;15.482;2024-02-14T12:45:09;10.50;94.70
7496;DHT22;3789;47.064;15.482;2024-02-14T12:47:41;10.60;93.20
7496;DHT22;3789;47.064;15.482;2024-02-14T12:50:11;10.60;94.20
7496;DHT22;3789;47.064;15.482;2024-02-14T12:52:43;10.80;93.50
7496;DHT22;3789;47.064;15.482;2024-02-14T12:55:11;10.80;93.90
7496;DHT22;3789;47.064;15.482;2024-02-14T12:57:41;10.70;92.70
7496;DHT22;3789;47.064;15.482;2024-02-14T13:00:11;10.60;91.80
7496;DHT22;3789;47.064;15.482;2024-02-14T13:02:39;10.50;92.10
7496;DHT22;3789;47.064;15.482;2024-02-14T13:05:14;10.50;90.30
7496;DHT22;3789;47.064;15.482;2024-02-14T13:07:51;10.50;90.30
7496;DHT22;3789;47.064;15.482;2024-02-14T13:10:21;10.40;91.40
7496;DHT22;3789;47.064;15.482;2024-02-14T13:12:52;10.40;91.50
7496;DHT22;3789;47.064;15.482;2024-02-14T13:15:21;10.30;91.40
7496;DHT22;3789;47.064;15.482;2024-02-14T13:17:53;10.40;90.90
7496;DHT22;3789;47.064;15.482;2024-02-14T13:20:29;10.70;90.00
7496;DHT22;3789;47.064;15.482;2024-02-14T13:23:01;10.60;90.30
7496;DHT22;3789;47.064;15.482;2024-02-14T13:25:33;10.70;90.60
7496;DHT22;3789;47.064;15.482;2024-02-14T13:28:03;10.70;90.20
7496;DHT22;3789;47.064;15.482;2024-02-14T13:31:00;10.80;89.60
7496;DHT22;3789;47.064;15.482;2024-02-14T13:33:32;10.80;89.40
7496;DHT22;3789;47.064;15.482;2024-02-14T13:36:01;10.90;88.80
7496;DHT22;3789;47.064;15.482;2024-02-14T13:38:31;11.00;88.10
7496;DHT22;3789;47.064;15.482;2024-02-14T13:41:02;11.00;87.20
7496;DHT22;3789;47.064;15.482;2024-02-14T13:43:31;11.00;89.70
7496;DHT22;3789;47.064;15.482;2024-02-14T13:46:09;10.90;88.80
7496;DHT22;3789;47.064;15.482;2024-02-14T13:48:39;10.90;88.60
7496;DHT22;3789;47.064;15.482;2024-02-14T13:51:21;11.00;88.40
7496;DHT22;3789;47.064;15.482;2024-02-14T13:53:50;11.10;88.00
7496;DHT22;3789;47.064;15.482;2024-02-14T13:56:20;11.10;87.90
7496;DHT22;3789;47.064;15.482;2024-02-14T13:58:55;11.10;89.00
7496;DHT22;3789;47.064;15.482;2024-02-14T14:01:23;11.10;90.20
7496;DHT22;3789;47.064;15.482;2024-02-14T14:03:54;11.00;90.50
7496;DHT22;3789;47.064;15.482;2024-02-14T14:06:26;10.90;90.70
7496;DHT22;3789;47.064;15.482;2024-02-14T14:08:58;10.90;91.00
7496;DHT22;3789;47.064;15.482;2024-02-14T14:11:30;11.00;89.20
7496;DHT22;3789;47.064;15.482;2024-02-14T14:13:59;11.20;89.70
7496;DHT22;3789;47.064;15.482;2024-02-14T14:16:35;11.10;89.40
7496;DHT22;3789;47.064;15.482;2024-02-14T14:19:05;11.00;89.80
7496;DHT22;3789;47.064;15.482;2024-02-14T14:21:34;10.90;88.90
7496;DHT22;3789;47.064;15.482;2024-02-14T14:24:05;10.90;89.10
7496;DHT22;3789;47.064;15.482;2024-02-14T14:26:36;11.00;89.70
7496;DHT22;3789;47.064;15.482;2024-02-14T14:29:08;11.10;88.70
7496;DHT22;3789;47.064;15.482;2024-02-14T14:31:38;11.00;87.20
7496;DHT22;3789;47.064;15.482;2024-02-14T14:34:08;11.00;87.00
7496;DHT22;3789;47.064;15.482;2024-02-14T14:36:39;11.10;86.90
7496;DHT22;3789;47.064;15.482;2024-02-14T14:39:12;10.90;85.70
7496;DHT22;3789;47.064;15.482;2024-02-14T14:41:39;10.90;87.80
7496;DHT22;3789;47.064;15.482;2024-02-14T14:44:09;10.80;85.20
7496;DHT22;3789;47.064;15.482;2024-02-14T14:46:39;10.70;83.90
7496;DHT22;3789;47.064;15.482;2024-02-14T14:49:11;10.60;85.50
7496;DHT22;3789;47.064;15.482;2024-02-14T14:51:40;10.70;85.80
7496;DHT22;3789;47.064;15.482;2024-02-14T14:54:08;10.60;84.50
7496;DHT22;3789;47.064;15.482;2024-02-14T14:56:40;10.70;87.00
7496;DHT22;3789;47.064;15.482;2024-02-14T14:59:10;10.80;87.80
7496;DHT22;3789;47.064;15.482;2024-02-14T15:01:42;10.90;87.10
7496;DHT22;3789;47.064;15.482;2024-02-14T15:04:11;11.00;87.30
7496;DHT22;3789;47.064;15.482;2024-02-14T15:06:40;11.00;86.10
7496;DHT22;3789;47.064;15.482;2024-02-14T15:09:08;10.70;86.50
7496;DHT22;3789;47.064;15.482;2024-02-14T15:11:41;10.60;85.10
7496;DHT22;3789;47.064;15.482;2024-02-14T15:14:14;10.50;86.60
7496;DHT22;3789;47.064;15.482;2024-02-14T15:16:43;10.50;87.70
7496;DHT22;3789;47.064;15.482;2024-02-14T15:19:11;10.40;87.70
7496;DHT22;3789;47.064;15.482;2024-02-14T15:21:40;10.40;87.60
7496;DHT22;3789;47.064;15.482;2024-02-14T15:24:16;10.40;88.30
7496;DHT22;3789;47.064;15.482;2024-02-14T15:26:46;10.30;89.00
7496;DHT22;3789;47.064;15.482;2024-02-14T15:29:21;10.20;89.10
7496;DHT22;3789;47.064;15.482;2024-02-14T15:32:09;10.20;90.00
7496;DHT22;3789;47.064;15.482;2024-02-14T15:34:59;10.10;90.20
7496;DHT22;3789;47.064;15.482;2024-02-14T15:37:28;10.10;90.20
7496;DHT22;3789;47.064;15.482;2024-02-14T15:39:58;10.00;90.30
7496;DHT22;3789;47.064;15.482;2024-02-14T15:42:27;10.00;90.60
7496;DHT22;3789;47.064;15.482;2024-02-14T15:44:57;10.00;90.50
7496;DHT22;3789;47.064;15.482;2024-02-14T15:47:27;10.00;90.60
7496;DHT22;3789;47.064;15.482;2024-02-14T15:50:00;10.00;91.00
7496;DHT22;3789;47.064;15.482;2024-02-14T15:52:32;9.90;91.80
7496;DHT22;3789;47.064;15.482;2024-02-14T15:55:00;10.00;91.10
7496;DHT22;3789;47.064;15.482;2024-02-14T15:57:31;10.00;91.10
7496;DHT22;3789;47.064;15.482;2024-02-14T15:59:59;9.90;91.80
7496;DHT22;3789;47.064;15.482;2024-02-14T16:02:32;9.80;92.10
7496;DHT22;3789;47.064;15.482;2024-02-14T16:05:01;9.70;92.20
7496;DHT22;3789;47.064;15.482;2024-02-14T16:07:36;9.60;92.70
7496;DHT22;3789;47.064;15.482;2024-02-14T16:10:07;9.50;92.50
7496;DHT22;3789;47.064;15.482;2024-02-14T16:12:38;9.40;92.70
7496;DHT22;3789;47.064;15.482;2024-02-14T16:15:09;9.40;92.90
7496;DHT22;3789;47.064;15.482;2024-02-14T16:17:41;9.50;92.90
7496;DHT22;3789;47.064;15.482;2024-02-14T16:20:11;9.50;93.00
7496;DHT22;3789;47.064;15.482;2024-02-14T16:22:40;9.40;93.20
7496;DHT22;3789;47.064;15.482;2024-02-14T16:25:08;9.40;93.30
7496;DHT22;3789;47.064;15.482;2024-02-14T16:27:41;9.30;93.50
7496;DHT22;3789;47.064;15.482;2024-02-14T16:30:09;9.30;93.60
7496;DHT22;3789;47.064;15.482;2024-02-14T16:32:40;9.20;93.70